sensor_id;sensor_type;location;lat;lon;timestamp;P1;durP1;ratioP1;P2;durP2;ratioP2
7471;SDS011;3777;48.722;8.110;2022-11-20T00:00:18;8.10;;;6.53;;
7471;SDS011;3777;48.722;8.110;2022-11-20T00:02:45;8.43;;;6.40;;
7471;SDS011;3777;48.722;8.110;2022-11-20T00:05:12;7.77;;;6.97;;
7471;SDS011;3777;48.722;8.110;2022-11-20T00:07:39;7.40;;;6.20;;
7471;SDS011;3777;48.722;8.110;2022-11-20T00:10:07;8.07;;;6.50;;
7471;SDS011;3777;48.722;8.110;2022-11-20T00:12:34;8.07;;;6.20;;
7471;SDS011;3777;48.722;8.110;2022-11-20T00:15:03;6.93;;;6.20;;
7471;SDS011;3777;48.722;8.110;2022-11-20T00:17:30;7.80;;;6.95;;
7471;SDS011;3777;48.722;8.110;2022-11-20T00:19:57;8.07;;;6.40;;
7471;SDS011;3777;48.722;8.110;2022-11-20T00:22:24;8.15;;;6.60;;
7471;SDS011;3777;48.722;8.110;2022-11-20T00:24:51;7.97;;;6.57;;
7471;SDS011;3777;48.722;8.110;2022-11-20T00:27:18;7.55;;;6.53;;
7471;SDS011;3777;48.722;8.110;2022-11-20T00:29:45;8.10;;;6.65;;
7471;SDS011;3777;48.722;8.110;2022-11-20T00:32:13;7.30;;;6.50;;
7471;SDS011;3777;48.722;8.110;2022-11-20T00:34:40;7.55;;;6.60;;
7471;SDS011;3777;48.722;8.110;2022-11-20T00:37:07;6.75;;;6.07;;
7471;SDS011;3777;48.722;8.110;2022-11-20T00:39:34;7.40;;;6.70;;
7471;SDS011;3777;48.722;8.110;2022-11-20T00:42:01;8.15;;;6.82;;
7471;SDS011;3777;48.722;8.110;2022-11-20T00:44:28;7.70;;;7.00;;
7471;SDS011;3777;48.722;8.110;2022-11-20T00:46:55;7.70;;;6.90;;
7471;SDS011;3777;48.722;8.110;2022-11-20T00:49:23;9.45;;;7.22;;
7471;SDS011;3777;48.722;8.110;2022-11-20T00:51:50;8.23;;;7.38;;
7471;SDS011;3777;48.722;8.110;2022-11-20T00:54:17;7.65;;;6.85;;
7471;SDS011;3777;48.722;8.110;2022-11-20T00:56:44;9.02;;;7.32;;
7471;SDS011;3777;48.722;8.110;2022-11-20T00:59:11;8.73;;;7.32;;
7471;SDS011;3777;48.722;8.110;2022-11-20T01:01:38;9.25;;;7.85;;
7471;SDS011;3777;48.722;8.110;2022-11-20T01:04:05;8.05;;;7.07;;
7471;SDS011;3777;48.722;8.110;2022-11-20T01:06:34;8.10;;;7.13;;
7471;SDS011;3777;48.722;8.110;2022-11-20T01:09:03;7.60;;;6.65;;
7471;SDS011;3777;48.722;8.110;2022-11-20T01:11:33;7.87;;;6.70;;
7471;SDS011;3777;48.722;8.110;2022-11-20T01:14:03;10.45;;;6.95;;
7471;SDS011;3777;48.722;8.110;2022-11-20T01:16:33;8.48;;;6.65;;
7471;SDS011;3777;48.722;8.110;2022-11-20T01:19:02;7.43;;;6.05;;
7471;SDS011;3777;48.722;8.110;2022-11-20T01:21:31;8.40;;;6.75;;
7471;SDS011;3777;48.722;8.110;2022-11-20T01:24:00;7.47;;;6.50;;
7471;SDS011;3777;48.722;8.110;2022-11-20T01:26:29;7.20;;;6.47;;
7471;SDS011;3777;48.722;8.110;2022-11-20T01:28:57;7.43;;;5.88;;
7471;SDS011;3777;48.722;8.110;2022-11-20T01:31:26;6.78;;;5.82;;
7471;SDS011;3777;48.722;8.110;2022-11-20T01:33:55;6.60;;;5.90;;
7471;SDS011;3777;48.722;8.110;2022-11-20T01:36:23;7.03;;;6.20;;
7471;SDS011;3777;48.722;8.110;2022-11-20T01:38:53;6.88;;;5.82;;
7471;SDS011;3777;48.722;8.110;2022-11-20T01:41:22;7.07;;;5.90;;
7471;SDS011;3777;48.722;8.110;2022-11-20T01:44:08;7.20;;;5.90;;
7471;SDS011;3777;48.722;8.110;2022-11-20T01:46:40;7.10;;;5.55;;
7471;SDS011;3777;48.722;8.110;2022-11-20T01:49:15;6.68;;;5.82;;
7471;SDS011;3777;48.722;8.110;2022-11-20T01:51:45;6.05;;;5.40;;
7471;SDS011;3777;48.722;8.110;2022-11-20T01:54:17;7.47;;;5.90;;
7471;SDS011;3777;48.722;8.110;2022-11-20T01:56:50;7.65;;;5.90;;
7471;SDS011;3777;48.722;8.110;2022-11-20T01:59:21;6.47;;;5.77;;
7471;SDS011;3777;48.722;8.110;2022-11-20T02:01:50;6.27;;;5.50;;
7471;SDS011;3777;48.722;8.110;2022-11-20T02:04:17;6.78;;;5.63;;
7471;SDS011;3777;48.722;8.110;2022-11-20T02:06:46;7.10;;;5.70;;
7471;SDS011;3777;48.722;8.110;2022-11-20T02:09:15;7.20;;;5.30;;
7471;SDS011;3777;48.722;8.110;2022-11-20T02:11:43;6.00;;;5.25;;
7471;SDS011;3777;48.722;8.110;2022-11-20T02:14:11;5.90;;;5.05;;
7471;SDS011;3777;48.722;8.110;2022-11-20T02:16:37;6.82;;;5.40;;
7471;SDS011;3777;48.722;8.110;2022-11-20T02:19:12;5.80;;;5.18;;
7471;SDS011;3777;48.722;8.110;2022-11-20T02:21:46;5.70;;;5.15;;
7471;SDS011;3777;48.722;8.110;2022-11-20T02:24:19;6.90;;;5.43;;
7471;SDS011;3777;48.722;8.110;2022-11-20T02:26:49;6.95;;;4.90;;
7471;SDS011;3777;48.722;8.110;2022-11-20T02:29:19;6.88;;;5.10;;
7471;SDS011;3777;48.722;8.110;2022-11-20T02:31:52;5.50;;;4.90;;
7471;SDS011;3777;48.722;8.110;2022-11-20T02:34:21;6.35;;;5.00;;
7471;SDS011;3777;48.722;8.110;2022-11-20T02:36:48;6.40;;;5.25;;
7471;SDS011;3777;48.722;8.110;2022-11-20T02:39:17;7.78;;;5.22;;
7471;SDS011;3777;48.722;8.110;2022-11-20T02:41:49;5.43;;;4.72;;
7471;SDS011;3777;48.722;8.110;2022-11-20T02:44:19;5.50;;;4.90;;
7471;SDS011;3777;48.722;8.110;2022-11-20T02:46:46;6.35;;;5.10;;
7471;SDS011;3777;48.722;8.110;2022-11-20T02:49:13;6.40;;;4.95;;
7471;SDS011;3777;48.722;8.110;2022-11-20T02:51:41;6.30;;;5.10;;
7471;SDS011;3777;48.722;8.110;2022-11-20T02:54:08;5.75;;;5.15;;
7471;SDS011;3777;48.722;8.110;2022-11-20T02:56:38;5.40;;;4.82;;
7471;SDS011;3777;48.722;8.110;2022-11-20T02:59:05;6.85;;;5.43;;
7471;SDS011;3777;48.722;8.110;2022-11-20T03:01:33;5.80;;;5.22;;
7471;SDS011;3777;48.722;8.110;2022-11-20T03:04:00;7.10;;;5.20;;
7471;SDS011;3777;48.722;8.110;2022-11-20T03:06:27;7.60;;;5.33;;
7471;SDS011;3777;48.722;8.110;2022-11-20T03:08:54;5.72;;;5.13;;
7471;SDS011;3777;48.722;8.110;2022-11-20T03:11:21;7.00;;;5.30;;
7471;SDS011;3777;48.722;8.110;2022-11-20T03:13:49;6.20;;;5.20;;
7471;SDS011;3777;48.722;8.110;2022-11-20T03:16:17;6.28;;;5.45;;
7471;SDS011;3777;48.722;8.110;2022-11-20T03:18:45;6.10;;;5.50;;
7471;SDS011;3777;48.722;8.110;2022-11-20T03:21:13;7.03;;;5.78;;
7471;SDS011;3777;48.722;8.110;2022-11-20T03:23:41;7.10;;;5.33;;
7471;SDS011;3777;48.722;8.110;2022-11-20T03:26:09;6.05;;;5.20;;
7471;SDS011;3777;48.722;8.110;2022-11-20T03:28:38;8.68;;;5.35;;
7471;SDS011;3777;48.722;8.110;2022-11-20T03:31:08;5.72;;;5.13;;
7471;SDS011;3777;48.722;8.110;2022-11-20T03:33:36;6.70;;;5.47;;
7471;SDS011;3777;48.722;8.110;2022-11-20T03:36:04;7.03;;;5.35;;
7471;SDS011;3777;48.722;8.110;2022-11-20T03:38:33;6.13;;;5.07;;
7471;SDS011;3777;48.722;8.110;2022-11-20T03:41:01;5.97;;;5.30;;
7471;SDS011;3777;48.722;8.110;2022-11-20T03:43:29;7.22;;;5.13;;
7471;SDS011;3777;48.722;8.110;2022-11-20T03:45:56;5.30;;;4.75;;
7471;SDS011;3777;48.722;8.110;2022-11-20T03:48:25;6.37;;;5.30;;
7471;SDS011;3777;48.722;8.110;2022-11-20T03:50:53;6.00;;;5.15;;
7471;SDS011;3777;48.722;8.110;2022-11-20T03:53:33;7.53;;;5.50;;
7471;SDS011;3777;48.722;8.110;2022-11-20T03:56:00;7.03;;;5.10;;
7471;SDS011;3777;48.722;8.110;2022-11-20T03:58:27;5.43;;;4.93;;
7471;SDS011;3777;48.722;8.110;2022-11-20T04:00:54;6.20;;;5.10;;
7471;SDS011;3777;48.722;8.110;2022-11-20T04:03:21;5.60;;;4.85;;
7471;SDS011;3777;48.722;8.110;2022-11-20T04:05:49;5.60;;;5.00;;
7471;SDS011;3777;48.722;8.110;2022-11-20T04:08:16;6.88;;;5.03;;
7471;SDS011;3777;48.722;8.110;2022-11-20T04:10:43;6.30;;;5.32;;
7471;SDS011;3777;48.722;8.110;2022-11-20T04:13:10;6.32;;;5.05;;
7471;SDS011;3777;48.722;8.110;2022-11-20T04:15:37;6.25;;;5.20;;
7471;SDS011;3777;48.722;8.110;2022-11-20T04:18:03;6.80;;;5.25;;
7471;SDS011;3777;48.722;8.110;2022-11-20T04:20:31;6.25;;;5.10;;
7471;SDS011;3777;48.722;8.110;2022-11-20T04:22:59;7.30;;;4.90;;
7471;SDS011;3777;48.722;8.110;2022-11-20T04:25:26;6.40;;;5.03;;
7471;SDS011;3777;48.722;8.110;2022-11-20T04:27:53;5.63;;;5.13;;
7471;SDS011;3777;48.722;8.110;2022-11-20T04:30:20;5.82;;;4.90;;
7471;SDS011;3777;48.722;8.110;2022-11-20T04:32:47;7.57;;;5.47;;
7471;SDS011;3777;48.722;8.110;2022-11-20T04:35:14;6.00;;;5.40;;
7471;SDS011;3777;48.722;8.110;2022-11-20T04:37:41;6.00;;;5.40;;
7471;SDS011;3777;48.722;8.110;2022-11-20T04:40:10;5.40;;;4.90;;
7471;SDS011;3777;48.722;8.110;2022-11-20T04:42:38;7.63;;;4.90;;
7471;SDS011;3777;48.722;8.110;2022-11-20T04:45:05;7.40;;;5.05;;
7471;SDS011;3777;48.722;8.110;2022-11-20T04:47:32;7.30;;;5.20;;
7471;SDS011;3777;48.722;8.110;2022-11-20T04:49:59;5.78;;;5.20;;
7471;SDS011;3777;48.722;8.110;2022-11-20T04:52:26;7.07;;;5.20;;
7471;SDS011;3777;48.722;8.110;2022-11-20T04:54:53;7.00;;;5.25;;
7471;SDS011;3777;48.722;8.110;2022-11-20T04:57:21;5.70;;;5.05;;
7471;SDS011;3777;48.722;8.110;2022-11-20T04:59:48;6.35;;;5.43;;
7471;SDS011;3777;48.722;8.110;2022-11-20T05:02:15;6.45;;;5.10;;
7471;SDS011;3777;48.722;8.110;2022-11-20T05:04:42;5.75;;;5.20;;
7471;SDS011;3777;48.722;8.110;2022-11-20T05:07:09;6.30;;;4.72;;
7471;SDS011;3777;48.722;8.110;2022-11-20T05:09:36;5.72;;;4.88;;
7471;SDS011;3777;48.722;8.110;2022-11-20T05:12:03;5.28;;;4.70;;
7471;SDS011;3777;48.722;8.110;2022-11-20T05:14:32;4.90;;;4.40;;
7471;SDS011;3777;48.722;8.110;2022-11-20T05:16:59;5.03;;;4.53;;
7471;SDS011;3777;48.722;8.110;2022-11-20T05:19:26;4.90;;;4.30;;
7471;SDS011;3777;48.722;8.110;2022-11-20T05:21:53;5.82;;;4.53;;
7471;SDS011;3777;48.722;8.110;2022-11-20T05:24:20;5.03;;;4.40;;
7471;SDS011;3777;48.722;8.110;2022-11-20T05:26:47;4.80;;;4.30;;
7471;SDS011;3777;48.722;8.110;2022-11-20T05:29:14;5.22;;;4.20;;
7471;SDS011;3777;48.722;8.110;2022-11-20T05:31:42;5.50;;;4.40;;
7471;SDS011;3777;48.722;8.110;2022-11-20T05:34:09;5.18;;;4.68;;
7471;SDS011;3777;48.722;8.110;2022-11-20T05:36:36;5.20;;;4.70;;
7471;SDS011;3777;48.722;8.110;2022-11-20T05:39:03;5.78;;;4.80;;
7471;SDS011;3777;48.722;8.110;2022-11-20T05:41:30;6.22;;;4.95;;
7471;SDS011;3777;48.722;8.110;2022-11-20T05:43:59;5.53;;;4.88;;
7471;SDS011;3777;48.722;8.110;2022-11-20T05:46:26;5.68;;;4.78;;
7471;SDS011;3777;48.722;8.110;2022-11-20T05:48:54;6.03;;;5.05;;
7471;SDS011;3777;48.722;8.110;2022-11-20T05:51:22;5.35;;;4.82;;
7471;SDS011;3777;48.722;8.110;2022-11-20T05:53:49;6.65;;;5.10;;
7471;SDS011;3777;48.722;8.110;2022-11-20T05:56:17;6.15;;;4.82;;
7471;SDS011;3777;48.722;8.110;2022-11-20T05:58:45;6.25;;;5.10;;
7471;SDS011;3777;48.722;8.110;2022-11-20T06:01:13;5.95;;;4.97;;
7471;SDS011;3777;48.722;8.110;2022-11-20T06:03:42;5.57;;;4.90;;
7471;SDS011;3777;48.722;8.110;2022-11-20T06:06:12;7.63;;;5.28;;
7471;SDS011;3777;48.722;8.110;2022-11-20T06:08:40;6.00;;;5.40;;
7471;SDS011;3777;48.722;8.110;2022-11-20T06:11:08;6.90;;;5.20;;
7471;SDS011;3777;48.722;8.110;2022-11-20T06:13:37;6.85;;;5.13;;
7471;SDS011;3777;48.722;8.110;2022-11-20T06:16:04;8.43;;;5.05;;
7471;SDS011;3777;48.722;8.110;2022-11-20T06:18:31;7.80;;;5.40;;
7471;SDS011;3777;48.722;8.110;2022-11-20T06:20:59;6.43;;;5.28;;
7471;SDS011;3777;48.722;8.110;2022-11-20T06:23:29;6.65;;;5.32;;
7471;SDS011;3777;48.722;8.110;2022-11-20T06:25:56;7.22;;;5.25;;
7471;SDS011;3777;48.722;8.110;2022-11-20T06:28:24;7.22;;;5.75;;
7471;SDS011;3777;48.722;8.110;2022-11-20T06:30:51;6.93;;;5.45;;
7471;SDS011;3777;48.722;8.110;2022-11-20T06:33:17;7.28;;;5.50;;
7471;SDS011;3777;48.722;8.110;2022-11-20T06:35:44;6.10;;;5.43;;
7471;SDS011;3777;48.722;8.110;2022-11-20T06:38:11;6.38;;;5.00;;
7471;SDS011;3777;48.722;8.110;2022-11-20T06:40:41;6.03;;;5.22;;
7471;SDS011;3777;48.722;8.110;2022-11-20T06:43:08;7.35;;;5.20;;
7471;SDS011;3777;48.722;8.110;2022-11-20T06:45:35;5.63;;;5.00;;
7471;SDS011;3777;48.722;8.110;2022-11-20T06:48:03;6.00;;;5.40;;
7471;SDS011;3777;48.722;8.110;2022-11-20T06:50:30;7.85;;;5.65;;
7471;SDS011;3777;48.722;8.110;2022-11-20T06:52:59;6.85;;;5.72;;
7471;SDS011;3777;48.722;8.110;2022-11-20T06:55:27;8.97;;;5.87;;
7471;SDS011;3777;48.722;8.110;2022-11-20T06:57:55;7.88;;;5.47;;
7471;SDS011;3777;48.722;8.110;2022-11-20T07:00:22;6.75;;;5.72;;
7471;SDS011;3777;48.722;8.110;2022-11-20T07:02:49;6.68;;;5.95;;
7471;SDS011;3777;48.722;8.110;2022-11-20T07:05:16;6.60;;;5.68;;
7471;SDS011;3777;48.722;8.110;2022-11-20T07:07:44;7.53;;;5.70;;
7471;SDS011;3777;48.722;8.110;2022-11-20T07:10:11;6.65;;;5.60;;
7471;SDS011;3777;48.722;8.110;2022-11-20T07:12:38;6.40;;;5.28;;
7471;SDS011;3777;48.722;8.110;2022-11-20T07:15:07;7.57;;;6.40;;
7471;SDS011;3777;48.722;8.110;2022-11-20T07:17:34;5.78;;;4.85;;
7471;SDS011;3777;48.722;8.110;2022-11-20T07:20:01;8.52;;;7.75;;
7471;SDS011;3777;48.722;8.110;2022-11-20T07:22:28;6.33;;;5.73;;
7471;SDS011;3777;48.722;8.110;2022-11-20T07:24:55;6.28;;;5.60;;
7471;SDS011;3777;48.722;8.110;2022-11-20T07:27:22;5.68;;;4.78;;
7471;SDS011;3777;48.722;8.110;2022-11-20T07:29:49;5.65;;;4.55;;
7471;SDS011;3777;48.722;8.110;2022-11-20T07:32:17;6.03;;;4.53;;
7471;SDS011;3777;48.722;8.110;2022-11-20T07:34:44;5.53;;;4.70;;
7471;SDS011;3777;48.722;8.110;2022-11-20T07:37:11;6.20;;;5.03;;
7471;SDS011;3777;48.722;8.110;2022-11-20T07:39:38;6.67;;;4.80;;
7471;SDS011;3777;48.722;8.110;2022-11-20T07:42:05;5.60;;;4.90;;
7471;SDS011;3777;48.722;8.110;2022-11-20T07:44:33;7.38;;;5.70;;
7471;SDS011;3777;48.722;8.110;2022-11-20T07:47:00;5.38;;;4.43;;
7471;SDS011;3777;48.722;8.110;2022-11-20T07:49:28;6.20;;;4.60;;
7471;SDS011;3777;48.722;8.110;2022-11-20T07:51:55;6.70;;;4.60;;
7471;SDS011;3777;48.722;8.110;2022-11-20T07:54:22;5.18;;;4.00;;
7471;SDS011;3777;48.722;8.110;2022-11-20T07:56:49;4.55;;;4.03;;
7471;SDS011;3777;48.722;8.110;2022-11-20T07:59:16;5.20;;;3.85;;
7471;SDS011;3777;48.722;8.110;2022-11-20T08:01:43;4.68;;;4.20;;
7471;SDS011;3777;48.722;8.110;2022-11-20T08:04:10;5.68;;;4.53;;
7471;SDS011;3777;48.722;8.110;2022-11-20T08:06:38;6.45;;;4.15;;
7471;SDS011;3777;48.722;8.110;2022-11-20T08:09:05;4.95;;;3.97;;
7471;SDS011;3777;48.722;8.110;2022-11-20T08:11:32;4.07;;;3.67;;
7471;SDS011;3777;48.722;8.110;2022-11-20T08:14:16;4.95;;;3.70;;
7471;SDS011;3777;48.722;8.110;2022-11-20T08:16:44;4.28;;;3.50;;
7471;SDS011;3777;48.722;8.110;2022-11-20T08:19:13;4.60;;;3.83;;
7471;SDS011;3777;48.722;8.110;2022-11-20T08:21:42;3.78;;;3.47;;
7471;SDS011;3777;48.722;8.110;2022-11-20T08:24:10;4.40;;;3.60;;
7471;SDS011;3777;48.722;8.110;2022-11-20T08:26:37;3.73;;;3.30;;
7471;SDS011;3777;48.722;8.110;2022-11-20T08:29:05;4.88;;;3.90;;
7471;SDS011;3777;48.722;8.110;2022-11-20T08:31:33;4.73;;;4.03;;
7471;SDS011;3777;48.722;8.110;2022-11-20T08:34:00;4.20;;;3.70;;
7471;SDS011;3777;48.722;8.110;2022-11-20T08:36:27;4.35;;;3.95;;
7471;SDS011;3777;48.722;8.110;2022-11-20T08:38:55;5.10;;;4.13;;
7471;SDS011;3777;48.722;8.110;2022-11-20T08:41:22;4.10;;;3.70;;
7471;SDS011;3777;48.722;8.110;2022-11-20T08:43:53;4.40;;;4.00;;
7471;SDS011;3777;48.722;8.110;2022-11-20T08:46:22;4.90;;;4.05;;
7471;SDS011;3777;48.722;8.110;2022-11-20T08:48:50;5.28;;;4.63;;
7471;SDS011;3777;48.722;8.110;2022-11-20T08:51:18;5.45;;;4.40;;
7471;SDS011;3777;48.722;8.110;2022-11-20T08:53:46;4.40;;;4.00;;
7471;SDS011;3777;48.722;8.110;2022-11-20T08:56:15;4.72;;;3.90;;
7471;SDS011;3777;48.722;8.110;2022-11-20T08:58:43;4.72;;;4.10;;
7471;SDS011;3777;48.722;8.110;2022-11-20T09:01:10;4.50;;;4.10;;
7471;SDS011;3777;48.722;8.110;2022-11-20T09:03:37;4.80;;;3.70;;
7471;SDS011;3777;48.722;8.110;2022-11-20T09:06:05;4.63;;;4.18;;
7471;SDS011;3777;48.722;8.110;2022-11-20T09:08:33;4.50;;;4.10;;
7471;SDS011;3777;48.722;8.110;2022-11-20T09:11:01;4.60;;;4.20;;
7471;SDS011;3777;48.722;8.110;2022-11-20T09:13:31;5.00;;;4.43;;
7471;SDS011;3777;48.722;8.110;2022-11-20T09:16:00;5.20;;;4.00;;
7471;SDS011;3777;48.722;8.110;2022-11-20T09:18:28;5.63;;;4.28;;
7471;SDS011;3777;48.722;8.110;2022-11-20T09:20:57;5.20;;;4.40;;
7471;SDS011;3777;48.722;8.110;2022-11-20T09:23:24;6.05;;;4.35;;
7471;SDS011;3777;48.722;8.110;2022-11-20T09:25:52;5.32;;;4.25;;
7471;SDS011;3777;48.722;8.110;2022-11-20T09:28:20;5.15;;;4.32;;
7471;SDS011;3777;48.722;8.110;2022-11-20T09:30:49;5.72;;;5.00;;
7471;SDS011;3777;48.722;8.110;2022-11-20T09:33:16;12.65;;;9.88;;
7471;SDS011;3777;48.722;8.110;2022-11-20T09:35:44;5.40;;;4.45;;
7471;SDS011;3777;48.722;8.110;2022-11-20T09:38:11;5.65;;;4.78;;
7471;SDS011;3777;48.722;8.110;2022-11-20T09:40:40;5.18;;;4.60;;
7471;SDS011;3777;48.722;8.110;2022-11-20T09:43:12;6.35;;;4.45;;
7471;SDS011;3777;48.722;8.110;2022-11-20T09:45:53;5.22;;;4.10;;
7471;SDS011;3777;48.722;8.110;2022-11-20T09:48:31;5.28;;;4.78;;
7471;SDS011;3777;48.722;8.110;2022-11-20T09:51:21;6.05;;;5.03;;
7471;SDS011;3777;48.722;8.110;2022-11-20T09:53:57;5.45;;;4.47;;
7471;SDS011;3777;48.722;8.110;2022-11-20T09:56:33;5.53;;;4.68;;
7471;SDS011;3777;48.722;8.110;2022-11-20T09:59:04;5.65;;;4.88;;
7471;SDS011;3777;48.722;8.110;2022-11-20T10:01:35;4.80;;;4.30;;
7471;SDS011;3777;48.722;8.110;2022-11-20T10:04:08;5.22;;;4.43;;
7471;SDS011;3777;48.722;8.110;2022-11-20T10:06:41;5.43;;;4.47;;
7471;SDS011;3777;48.722;8.110;2022-11-20T10:09:16;5.57;;;3.97;;
7471;SDS011;3777;48.722;8.110;2022-11-20T10:11:49;4.80;;;4.20;;
7471;SDS011;3777;48.722;8.110;2022-11-20T10:14:23;5.15;;;4.10;;
7471;SDS011;3777;48.722;8.110;2022-11-20T10:17:00;5.13;;;3.95;;
7471;SDS011;3777;48.722;8.110;2022-11-20T10:19:40;4.50;;;3.60;;
7471;SDS011;3777;48.722;8.110;2022-11-20T10:22:18;3.65;;;3.30;;
7471;SDS011;3777;48.722;8.110;2022-11-20T10:24:53;4.70;;;3.30;;
7471;SDS011;3777;48.722;8.110;2022-11-20T10:30:25;4.17;;;3.27;;
7471;SDS011;3777;48.722;8.110;2022-11-20T10:32:58;3.50;;;3.20;;
7471;SDS011;3777;48.722;8.110;2022-11-20T10:35:32;4.10;;;3.30;;
7471;SDS011;3777;48.722;8.110;2022-11-20T10:38:02;3.55;;;3.10;;
7471;SDS011;3777;48.722;8.110;2022-11-20T10:40:35;5.03;;;3.60;;
7471;SDS011;3777;48.722;8.110;2022-11-20T10:43:08;3.65;;;3.10;;
7471;SDS011;3777;48.722;8.110;2022-11-20T10:45:43;4.80;;;3.42;;
7471;SDS011;3777;48.722;8.110;2022-11-20T10:48:22;5.22;;;3.72;;
7471;SDS011;3777;48.722;8.110;2022-11-20T10:51:01;5.10;;;3.65;;
7471;SDS011;3777;48.722;8.110;2022-11-20T10:53:46;4.57;;;3.38;;
7471;SDS011;3777;48.722;8.110;2022-11-20T10:56:21;5.15;;;3.75;;
7471;SDS011;3777;48.722;8.110;2022-11-20T10:59:00;7.03;;;4.45;;
7471;SDS011;3777;48.722;8.110;2022-11-20T11:01:39;4.60;;;3.80;;
7471;SDS011;3777;48.722;8.110;2022-11-20T11:04:20;4.73;;;3.60;;
7471;SDS011;3777;48.722;8.110;2022-11-20T11:06:58;5.15;;;3.78;;
7471;SDS011;3777;48.722;8.110;2022-11-20T11:09:33;4.15;;;3.35;;
7471;SDS011;3777;48.722;8.110;2022-11-20T11:12:05;4.68;;;3.70;;
7471;SDS011;3777;48.722;8.110;2022-11-20T11:14:41;4.80;;;3.50;;
7471;SDS011;3777;48.722;8.110;2022-11-20T11:17:23;5.25;;;3.60;;
7471;SDS011;3777;48.722;8.110;2022-11-20T11:20:01;4.28;;;3.60;;
7471;SDS011;3777;48.722;8.110;2022-11-20T11:22:31;5.05;;;3.60;;
7471;SDS011;3777;48.722;8.110;2022-11-20T11:24:59;4.43;;;3.42;;
7471;SDS011;3777;48.722;8.110;2022-11-20T11:27:26;4.85;;;3.83;;
7471;SDS011;3777;48.722;8.110;2022-11-20T11:30:01;4.68;;;3.55;;
7471;SDS011;3777;48.722;8.110;2022-11-20T11:32:37;4.68;;;3.50;;
7471;SDS011;3777;48.722;8.110;2022-11-20T11:35:06;5.68;;;3.33;;
7471;SDS011;3777;48.722;8.110;2022-11-20T11:37:45;4.75;;;2.97;;
7471;SDS011;3777;48.722;8.110;2022-11-20T11:42:42;4.43;;;2.78;;
7471;SDS011;3777;48.722;8.110;2022-11-20T11:45:11;3.75;;;2.50;;
7471;SDS011;3777;48.722;8.110;2022-11-20T11:47:43;3.90;;;2.50;;
7471;SDS011;3777;48.722;8.110;2022-11-20T11:50:18;3.10;;;2.28;;
7471;SDS011;3777;48.722;8.110;2022-11-20T11:52:49;3.75;;;2.13;;
7471;SDS011;3777;48.722;8.110;2022-11-20T11:55:25;4.10;;;3.03;;
7471;SDS011;3777;48.722;8.110;2022-11-20T11:57:59;21.20;;;13.85;;
7471;SDS011;3777;48.722;8.110;2022-11-20T12:00:37;5.10;;;3.45;;
7471;SDS011;3777;48.722;8.110;2022-11-20T12:03:12;7.35;;;5.90;;
7471;SDS011;3777;48.722;8.110;2022-11-20T12:05:47;6.10;;;4.90;;
7471;SDS011;3777;48.722;8.110;2022-11-20T12:08:21;11.40;;;8.50;;
7471;SDS011;3777;48.722;8.110;2022-11-20T12:10:53;3.58;;;2.28;;
7471;SDS011;3777;48.722;8.110;2022-11-20T12:16:10;4.68;;;2.97;;
7471;SDS011;3777;48.722;8.110;2022-11-20T12:18:39;3.60;;;2.60;;
7471;SDS011;3777;48.722;8.110;2022-11-20T12:21:13;5.53;;;3.50;;
7471;SDS011;3777;48.722;8.110;2022-11-20T12:23:52;10.10;;;6.83;;
7471;SDS011;3777;48.722;8.110;2022-11-20T12:26:34;3.95;;;2.80;;
7471;SDS011;3777;48.722;8.110;2022-11-20T12:29:14;6.45;;;4.80;;
7471;SDS011;3777;48.722;8.110;2022-11-20T12:31:52;6.60;;;4.78;;
7471;SDS011;3777;48.722;8.110;2022-11-20T12:34:39;6.68;;;4.68;;
7471;SDS011;3777;48.722;8.110;2022-11-20T12:37:17;5.30;;;4.00;;
7471;SDS011;3777;48.722;8.110;2022-11-20T12:39:54;7.00;;;4.40;;
7471;SDS011;3777;48.722;8.110;2022-11-20T12:42:30;6.95;;;4.50;;
7471;SDS011;3777;48.722;8.110;2022-11-20T12:45:28;5.75;;;3.97;;
7471;SDS011;3777;48.722;8.110;2022-11-20T12:54:04;8.10;;;5.47;;
7471;SDS011;3777;48.722;8.110;2022-11-20T12:56:53;4.65;;;3.70;;
7471;SDS011;3777;48.722;8.110;2022-11-20T12:59:33;4.30;;;2.75;;
7471;SDS011;3777;48.722;8.110;2022-11-20T13:02:19;3.40;;;2.30;;
7471;SDS011;3777;48.722;8.110;2022-11-20T13:04:56;3.78;;;1.98;;
7471;SDS011;3777;48.722;8.110;2022-11-20T13:07:32;3.27;;;1.80;;
7471;SDS011;3777;48.722;8.110;2022-11-20T13:10:03;4.80;;;2.17;;
7471;SDS011;3777;48.722;8.110;2022-11-20T13:12:33;3.90;;;2.13;;
7471;SDS011;3777;48.722;8.110;2022-11-20T13:15:04;2.53;;;1.67;;
7471;SDS011;3777;48.722;8.110;2022-11-20T13:17:41;4.38;;;2.00;;
7471;SDS011;3777;48.722;8.110;2022-11-20T13:20:14;3.20;;;1.80;;
7471;SDS011;3777;48.722;8.110;2022-11-20T13:22:43;3.30;;;1.90;;
7471;SDS011;3777;48.722;8.110;2022-11-20T13:25:22;4.35;;;1.90;;
7471;SDS011;3777;48.722;8.110;2022-11-20T13:27:50;3.78;;;1.90;;
7471;SDS011;3777;48.722;8.110;2022-11-20T13:30:19;3.60;;;2.10;;
7471;SDS011;3777;48.722;8.110;2022-11-20T13:32:47;3.22;;;1.55;;
7471;SDS011;3777;48.722;8.110;2022-11-20T13:35:23;3.67;;;1.70;;
7471;SDS011;3777;48.722;8.110;2022-11-20T13:37:59;3.80;;;1.70;;
7471;SDS011;3777;48.722;8.110;2022-11-20T13:40:32;2.22;;;1.52;;
7471;SDS011;3777;48.722;8.110;2022-11-20T13:43:04;2.83;;;1.58;;
7471;SDS011;3777;48.722;8.110;2022-11-20T13:45:40;3.25;;;1.70;;
7471;SDS011;3777;48.722;8.110;2022-11-20T13:48:18;3.80;;;1.80;;
7471;SDS011;3777;48.722;8.110;2022-11-20T13:50:50;2.55;;;1.80;;
7471;SDS011;3777;48.722;8.110;2022-11-20T13:53:33;3.17;;;1.83;;
7471;SDS011;3777;48.722;8.110;2022-11-20T13:56:22;3.03;;;1.70;;
7471;SDS011;3777;48.722;8.110;2022-11-20T13:58:56;2.90;;;1.90;;
7471;SDS011;3777;48.722;8.110;2022-11-20T14:01:29;3.23;;;1.83;;
7471;SDS011;3777;48.722;8.110;2022-11-20T14:03:57;3.80;;;1.80;;
7471;SDS011;3777;48.722;8.110;2022-11-20T14:06:26;2.88;;;1.63;;
7471;SDS011;3777;48.722;8.110;2022-11-20T14:08:54;3.70;;;1.90;;
7471;SDS011;3777;48.722;8.110;2022-11-20T14:11:23;3.40;;;1.97;;
7471;SDS011;3777;48.722;8.110;2022-11-20T14:13:52;2.97;;;1.83;;
7471;SDS011;3777;48.722;8.110;2022-11-20T14:16:22;4.05;;;1.90;;
7471;SDS011;3777;48.722;8.110;2022-11-20T14:18:49;3.00;;;1.70;;
7471;SDS011;3777;48.722;8.110;2022-11-20T14:21:23;2.67;;;1.70;;
7471;SDS011;3777;48.722;8.110;2022-11-20T14:23:52;3.42;;;1.70;;
7471;SDS011;3777;48.722;8.110;2022-11-20T14:26:20;2.50;;;1.52;;
7471;SDS011;3777;48.722;8.110;2022-11-20T14:28:49;2.50;;;1.65;;
7471;SDS011;3777;48.722;8.110;2022-11-20T14:31:20;3.37;;;1.70;;
7471;SDS011;3777;48.722;8.110;2022-11-20T14:33:50;2.58;;;1.65;;
7471;SDS011;3777;48.722;8.110;2022-11-20T14:36:18;3.38;;;1.70;;
7471;SDS011;3777;48.722;8.110;2022-11-20T14:38:48;2.70;;;1.60;;
7471;SDS011;3777;48.722;8.110;2022-11-20T14:41:16;3.85;;;1.60;;
7471;SDS011;3777;48.722;8.110;2022-11-20T14:43:45;3.65;;;1.70;;
7471;SDS011;3777;48.722;8.110;2022-11-20T14:46:15;2.78;;;1.70;;
7471;SDS011;3777;48.722;8.110;2022-11-20T14:48:43;3.15;;;1.80;;
7471;SDS011;3777;48.722;8.110;2022-11-20T14:51:22;3.15;;;1.67;;
7471;SDS011;3777;48.722;8.110;2022-11-20T14:53:53;3.50;;;1.80;;
7471;SDS011;3777;48.722;8.110;2022-11-20T14:56:23;2.40;;;1.50;;
7471;SDS011;3777;48.722;8.110;2022-11-20T14:58:56;3.50;;;1.90;;
7471;SDS011;3777;48.722;8.110;2022-11-20T15:01:29;2.58;;;1.73;;
7471;SDS011;3777;48.722;8.110;2022-11-20T15:03:59;2.85;;;1.60;;
7471;SDS011;3777;48.722;8.110;2022-11-20T15:06:27;2.67;;;1.83;;
7471;SDS011;3777;48.722;8.110;2022-11-20T15:08:56;2.60;;;1.70;;
7471;SDS011;3777;48.722;8.110;2022-11-20T15:11:27;3.15;;;1.70;;
7471;SDS011;3777;48.722;8.110;2022-11-20T15:13:56;2.75;;;1.80;;
7471;SDS011;3777;48.722;8.110;2022-11-20T15:16:24;3.33;;;1.85;;
7471;SDS011;3777;48.722;8.110;2022-11-20T15:18:54;2.22;;;1.63;;
7471;SDS011;3777;48.722;8.110;2022-11-20T15:21:21;2.63;;;1.70;;
7471;SDS011;3777;48.722;8.110;2022-11-20T15:23:48;2.53;;;1.60;;
7471;SDS011;3777;48.722;8.110;2022-11-20T15:26:18;3.60;;;1.60;;
7471;SDS011;3777;48.722;8.110;2022-11-20T15:28:49;3.25;;;1.70;;
7471;SDS011;3777;48.722;8.110;2022-11-20T15:31:17;2.67;;;1.70;;
7471;SDS011;3777;48.722;8.110;2022-11-20T15:33:45;2.63;;;1.70;;
7471;SDS011;3777;48.722;8.110;2022-11-20T15:36:14;4.28;;;1.80;;
7471;SDS011;3777;48.722;8.110;2022-11-20T15:38:41;3.33;;;2.00;;
7471;SDS011;3777;48.722;8.110;2022-11-20T15:41:08;3.63;;;1.80;;
7471;SDS011;3777;48.722;8.110;2022-11-20T15:43:35;2.38;;;1.88;;
7471;SDS011;3777;48.722;8.110;2022-11-20T15:46:06;3.30;;;1.90;;